Time;durP1;ratioP1;P1;durP2;ratioP2;P2;SDS_P1;SDS_P2;PMS_P1;PMS_P2;Temp;Humidity;BMP_temperature;BMP_pressure;BME280_temperature;BME280_humidity;BME280_pressure;Samples;Min_cycle;Max_cycle;Signal;HPM_P1;HPM_P2
2023/10/25 00:04:18;;;;;;;1.17;0.10;;;10.20;99.90;;;;;;25343130;23;20334;-54
2023/10/25 00:14:20;;;;;;;0.25;0.08;;;9.70;99.90;;;;;;25342529;23;20010;-55
2023/10/25 00:24:22;;;;;;;0.22;0.00;;;9.40;99.90;;;;;;25342473;23;20379;-59
2023/10/25 00:34:23;;;;;;;2.00;0.10;;;9.50;99.90;;;;;;25341630;23;20001;-53
2023/10/25 00:44:25;;;;;;;2.92;0.22;;;9.30;99.90;;;;;;25341598;23;20006;-60
2023/10/25 00:54:27;;;;;;;0.98;0.15;;;9.40;99.90;;;;;;25340993;23;20014;-54
2023/10/25 01:04:29;;;;;;;1.77;0.40;;;9.60;99.90;;;;;;25340760;23;20010;-60
2023/10/25 01:14:31;;;;;;;3.20;0.30;;;9.40;99.90;;;;;;25314559;23;20014;-60
2023/10/25 01:24:33;;;;;;;0.73;0.10;;;9.60;99.90;;;;;;25340341;23;20311;-54
2023/10/25 01:34:34;;;;;;;1.35;0.10;;;9.60;99.90;;;;;;25340441;23;20029;-52
2023/10/25 01:44:36;;;;;;;1.48;0.10;;;9.30;99.90;;;;;;25313972;23;20010;-51
2023/10/25 01:54:40;;;;;;;0.30;0.00;;;9.20;99.90;;;;;;25339179;23;20066;-54
2023/10/25 02:04:42;;;;;;;0.00;0.00;;;9.10;99.90;;;;;;25339344;23;20006;-59
2023/10/25 02:14:43;;;;;;;0.25;0.00;;;8.90;99.90;;;;;;25338928;23;20006;-59
2023/10/25 02:24:49;;;;;;;0.35;0.10;;;8.90;99.90;;;;;;25338726;23;20017;-52
2023/10/25 02:34:51;;;;;;;0.88;0.17;;;8.90;99.90;;;;;;25354267;23;20010;-58
2023/10/25 02:44:54;;;;;;;0.35;0.10;;;9.30;99.90;;;;;;25338703;23;20002;-50
2023/10/25 02:54:56;;;;;;;0.10;0.08;;;9.30;99.90;;;;;;25340921;23;20018;-53
2023/10/25 03:05:00;;;;;;;1.02;0.20;;;9.30;99.90;;;;;;25346043;23;20390;-51
2023/10/25 03:15:02;;;;;;;3.63;0.50;;;9.30;99.90;;;;;;25319257;23;20006;-50
2023/10/25 03:25:04;;;;;;;2.42;0.40;;;9.40;99.90;;;;;;25318859;23;20006;-51
2023/10/25 03:35:07;;;;;;;1.88;0.20;;;9.40;99.90;;;;;;25345861;23;20006;-52
2023/10/25 03:45:09;;;;;;;1.63;0.30;;;9.20;99.90;;;;;;25343657;23;20010;-48
2023/10/25 03:55:11;;;;;;;1.15;0.30;;;9.00;99.90;;;;;;25342714;23;20010;-51
2023/10/25 04:05:13;;;;;;;0.75;0.20;;;9.20;99.90;;;;;;25342584;23;20021;-59
2023/10/25 04:15:15;;;;;;;5.20;0.70;;;9.10;99.90;;;;;;25342063;23;20325;-51
2023/10/25 04:25:17;;;;;;;1.08;0.30;;;9.10;99.90;;;;;;25343411;23;20002;-51
2023/10/25 04:35:18;;;;;;;0.93;0.20;;;9.20;99.90;;;;;;25341506;23;20006;-53
2023/10/25 04:45:20;;;;;;;1.35;0.30;;;9.00;99.90;;;;;;25341309;23;20010;-51
2023/10/25 04:55:26;;;;;;;2.60;0.45;;;9.10;99.90;;;;;;25340647;23;20037;-49
2023/10/25 05:05:27;;;;;;;4.15;0.30;;;9.10;99.90;;;;;;25340253;23;20531;-59
2023/10/25 05:15:29;;;;;;;7.55;0.60;;;9.00;99.90;;;;;;25339494;23;20060;-52
2023/10/25 05:25:31;;;;;;;4.35;0.55;;;8.70;99.90;;;;;;25339903;23;20006;-52
2023/10/25 05:35:33;;;;;;;4.18;0.40;;;8.70;99.90;;;;;;25339336;23;20002;-59
2023/10/25 05:45:36;;;;;;;5.43;0.50;;;8.60;99.90;;;;;;25339229;23;20010;-58
2023/10/25 05:55:38;;;;;;;4.68;0.32;;;8.50;99.90;;;;;;25338386;23;20069;-58
2023/10/25 06:05:41;;;;;;;3.20;0.50;;;8.50;99.90;;;;;;25338984;23;20006;-58
2023/10/25 06:15:44;;;;;;;2.97;0.50;;;8.70;99.90;;;;;;25338472;23;20509;-49
2023/10/25 06:25:46;;;;;;;5.75;0.70;;;8.70;99.90;;;;;;25338309;23;20385;-52
2023/10/25 06:35:48;;;;;;;5.72;0.85;;;8.70;99.90;;;;;;25319376;23;20009;-58
2023/10/25 06:45:51;;;;;;;3.38;0.40;;;8.80;99.90;;;;;;25320006;23;20005;-53
2023/10/25 06:55:52;;;;;;;5.07;0.40;;;9.00;99.90;;;;;;25345976;23;20065;-59
2023/10/25 07:05:56;;;;;;;4.45;0.30;;;9.20;99.90;;;;;;25385471;23;20337;-59
2023/10/25 07:15:58;;;;;;;1.30;0.30;;;9.60;99.90;;;;;;25344433;23;20017;-59
2023/10/25 07:26:00;;;;;;;2.13;0.40;;;10.30;99.90;;;;;;25344364;23;20010;-59
2023/10/25 07:36:03;;;;;;;1.27;0.40;;;11.50;99.90;;;;;;25343950;23;20006;-60
2023/10/25 07:46:05;;;;;;;2.88;0.50;;;12.50;99.90;;;;;;25341742;23;20014;-53
2023/10/25 07:56:07;;;;;;;2.08;0.43;;;12.70;99.90;;;;;;25342896;23;20453;-52
2023/10/25 08:06:09;;;;;;;2.78;0.32;;;13.00;99.90;;;;;;25342662;23;20005;-52
2023/10/25 08:16:10;;;;;;;5.90;0.50;;;13.40;99.90;;;;;;25340974;23;20018;-60
2023/10/25 08:26:13;;;;;;;2.70;0.50;;;13.10;99.90;;;;;;25316579;23;20009;-52
2023/10/25 08:36:14;;;;;;;2.10;0.47;;;12.90;99.90;;;;;;25341554;23;20005;-53
2023/10/25 08:46:18;;;;;;;2.75;0.80;;;12.90;99.90;;;;;;25341679;23;20014;-60
2023/10/25 08:56:20;;;;;;;2.58;0.80;;;13.30;99.90;;;;;;25339969;23;20052;-60
2023/10/25 09:06:24;;;;;;;3.58;0.77;;;12.60;99.90;;;;;;25340272;23;20010;-60
2023/10/25 09:16:27;;;;;;;2.30;0.75;;;12.10;99.90;;;;;;25340059;23;20006;-60
2023/10/25 09:26:39;;;;;;;2.38;0.80;;;11.80;99.90;;;;;;25339631;23;20489;-59
2023/10/25 09:36:42;;;;;;;2.60;0.60;;;12.20;99.90;;;;;;25380211;23;20032;-52
2023/10/25 09:46:46;;;;;;;4.53;0.50;;;12.30;99.90;;;;;;25339618;23;20382;-59
2023/10/25 09:56:51;;;;;;;3.40;0.88;;;12.50;99.90;;;;;;25338521;23;20081;-61
2023/10/25 10:07:11;;;;;;;2.55;0.85;;;13.60;99.90;;;;;;25338322;23;20002;-61
2023/10/25 10:17:15;;;;;;;2.00;0.70;;;14.90;99.90;;;;;;25378679;23;20030;-61
2023/10/25 10:27:25;;;;;;;2.92;0.90;;;15.20;99.90;;;;;;25337739;23;20017;-62
2023/10/25 10:37:29;;;;;;;4.38;1.20;;;16.20;99.90;;;;;;25378263;23;20010;-61
2023/10/25 10:47:41;;;;;;;5.93;1.20;;;15.70;99.90;;;;;;25339222;23;20021;-62
2023/10/25 10:57:44;;;;;;;8.82;1.35;;;15.10;99.90;;;;;;25346850;23;20037;-61
2023/10/25 11:07:48;;;;;;;3.15;0.70;;;15.00;99.90;;;;;;25337135;23;20041;-53
2023/10/25 11:17:50;;;;;;;3.03;0.65;;;16.40;99.90;;;;;;25342474;23;20017;-62
2023/10/25 11:27:55;;;;;;;3.70;1.35;;;17.30;99.90;;;;;;25344510;23;20026;-62
2023/10/25 11:37:58;;;;;;;7.03;1.63;;;16.20;99.90;;;;;;25343803;23;20014;-54
2023/10/25 11:48:00;;;;;;;7.43;2.67;;;14.50;99.90;;;;;;25343519;23;20013;-61
2023/10/25 11:58:03;;;;;;;5.18;2.70;;;13.90;99.90;;;;;;25343441;23;20073;-54
2023/10/25 12:08:05;;;;;;;8.57;4.03;;;15.00;99.90;;;;;;25343323;23;20314;-61
2023/10/25 12:18:07;;;;;;;8.00;4.55;;;15.00;99.90;;;;;;25317294;23;20396;-60
2023/10/25 12:28:08;;;;;;;4.68;3.60;;;14.40;99.90;;;;;;25341707;23;20015;-62
2023/10/25 12:38:10;;;;;;;5.65;4.03;;;14.30;99.90;;;;;;25343339;23;20060;-62
2023/10/25 12:48:13;;;;;;;6.32;3.78;;;15.20;99.90;;;;;;25341321;23;20006;-62
2023/10/25 12:58:15;;;;;;;5.47;3.30;;;16.20;99.90;;;;;;25341116;23;20017;-62
2023/10/25 13:08:17;;;;;;;6.70;3.97;;;15.30;99.90;;;;;;25340586;23;20015;-63
2023/10/25 13:18:19;;;;;;;7.55;2.75;;;14.70;99.90;;;;;;25340486;23;20434;-62
2023/10/25 13:28:21;;;;;;;5.65;3.20;;;15.00;99.90;;;;;;25339784;23;20005;-53
2023/10/25 13:38:23;;;;;;;5.18;4.20;;;15.40;99.90;;;;;;25339142;23;20326;-55
2023/10/25 13:48:24;;;;;;;6.88;4.88;;;15.00;99.90;;;;;;25339454;23;20334;-60
2023/10/25 13:58:26;;;;;;;7.18;5.75;;;14.90;99.90;;;;;;25338900;23;20519;-60
2023/10/25 14:08:28;;;;;;;6.90;5.20;;;14.50;99.90;;;;;;25338588;23;20009;-53
2023/10/25 14:18:30;;;;;;;10.10;5.55;;;13.40;99.90;;;;;;25338435;23;20016;-61
2023/10/25 14:28:32;;;;;;;7.82;5.55;;;12.80;99.90;;;;;;25337647;23;20033;-60
2023/10/25 14:38:34;;;;;;;8.05;5.75;;;12.10;99.90;;;;;;25337968;23;20009;-51
2023/10/25 14:48:36;;;;;;;9.77;6.90;;;11.30;99.90;;;;;;25338336;23;20006;-59
2023/10/25 14:58:41;;;;;;;27.40;10.30;;;10.90;99.90;;;;;;25345062;23;20092;-59
2023/10/25 15:08:42;;;;;;;11.02;7.30;;;10.90;99.90;;;;;;25344457;23;20014;-59
2023/10/25 15:18:44;;;;;;;13.60;8.05;;;10.80;99.90;;;;;;25344759;23;20069;-59
2023/10/25 15:28:46;;;;;;;13.15;9.13;;;10.40;99.90;;;;;;25344186;23;20002;-59
2023/10/25 15:38:48;;;;;;;25.83;11.38;;;10.40;99.90;;;;;;25318085;23;20430;-59
2023/10/25 15:48:52;;;;;;;12.32;8.60;;;10.20;99.90;;;;;;25317652;23;20501;-53
2023/10/25 15:58:54;;;;;;;28.50;9.98;;;10.00;99.90;;;;;;25342731;23;20089;-59
2023/10/25 16:08:56;;;;;;;22.52;9.43;;;9.90;99.90;;;;;;25342898;23;20002;-59
2023/10/25 16:18:57;;;;;;;13.43;7.55;;;9.70;99.90;;;;;;25343457;23;20020;-51
2023/10/25 16:28:59;;;;;;;10.27;4.10;;;9.40;99.90;;;;;;25342528;23;20521;-52
2023/10/25 16:39:01;;;;;;;7.03;4.22;;;8.90;99.90;;;;;;25342136;23;20002;-58
2023/10/25 16:49:03;;;;;;;5.93;3.80;;;8.80;99.90;;;;;;25341900;23;20009;-53
2023/10/25 16:59:04;;;;;;;8.88;2.90;;;8.60;99.90;;;;;;25341580;23;20354;-49
2023/10/25 17:09:06;;;;;;;4.88;2.25;;;8.40;99.90;;;;;;25341302;23;20014;-53
2023/10/25 17:19:08;;;;;;;4.85;1.77;;;8.30;99.90;;;;;;25315148;23;20022;-53
2023/10/25 17:29:10;;;;;;;5.05;1.67;;;8.50;99.90;;;;;;25340706;23;20006;-50
2023/10/25 17:39:12;;;;;;;4.10;2.30;;;8.60;99.90;;;;;;25340100;23;20061;-53
2023/10/25 17:49:14;;;;;;;5.65;2.40;;;8.50;99.90;;;;;;25339937;23;20027;-52
2023/10/25 17:59:16;;;;;;;4.32;1.95;;;8.60;99.90;;;;;;25339341;23;20018;-58
2023/10/25 18:09:17;;;;;;;5.20;2.30;;;8.60;99.90;;;;;;25339037;23;20009;-52
2023/10/25 18:19:22;;;;;;;5.32;2.20;;;8.70;99.90;;;;;;25339275;23;20010;-54
2023/10/25 18:29:24;;;;;;;4.90;2.08;;;9.00;99.90;;;;;;25346548;23;20493;-59
2023/10/25 18:39:26;;;;;;;3.38;1.45;;;9.20;99.90;;;;;;25321179;23;20016;-57
2023/10/25 18:49:27;;;;;;;3.95;1.58;;;9.20;99.90;;;;;;25346974;23;20006;-57
2023/10/25 18:59:29;;;;;;;4.75;1.30;;;9.10;99.90;;;;;;25347075;23;20437;-52
2023/10/25 19:09:31;;;;;;;2.60;0.88;;;8.90;99.90;;;;;;25345744;23;20476;-52
2023/10/25 19:19:33;;;;;;;5.32;2.80;;;8.60;99.90;;;;;;25347023;23;20334;-54
2023/10/25 19:29:35;;;;;;;9.45;2.50;;;8.40;99.90;;;;;;25346151;23;20006;-50
2023/10/25 19:39:39;;;;;;;6.03;2.92;;;8.30;99.90;;;;;;25345821;23;20006;-53
2023/10/25 19:49:42;;;;;;;8.55;3.38;;;8.10;99.90;;;;;;25345367;23;20077;-55
2023/10/25 19:59:43;;;;;;;7.03;3.33;;;8.20;99.90;;;;;;25344917;23;20045;-58
2023/10/25 20:09:45;;;;;;;9.05;2.50;;;8.20;99.90;;;;;;25344819;23;20006;-50
2023/10/25 20:19:50;;;;;;;5.88;2.20;;;8.40;99.90;;;;;;25345929;23;20033;-59
2023/10/25 20:29:52;;;;;;;4.00;2.40;;;8.30;99.90;;;;;;25343820;23;20006;-53
2023/10/25 20:39:55;;;;;;;5.40;2.60;;;8.10;99.90;;;;;;25317339;23;20057;-59
2023/10/25 20:49:57;;;;;;;7.32;2.72;;;8.00;99.90;;;;;;25342795;23;20350;-50
2023/10/25 20:59:59;;;;;;;9.88;3.70;;;7.70;99.90;;;;;;25316374;23;20025;-56
2023/10/25 21:10:01;;;;;;;4.43;2.55;;;7.60;99.90;;;;;;25342600;23;20069;-52
2023/10/25 21:20:03;;;;;;;2.28;1.05;;;7.40;99.90;;;;;;25342191;23;20409;-58
2023/10/25 21:30:06;;;;;;;6.30;2.25;;;7.40;99.90;;;;;;25315587;23;20013;-57
2023/10/25 21:40:09;;;;;;;6.43;2.50;;;7.60;99.90;;;;;;25341628;23;20076;-58
2023/10/25 21:50:10;;;;;;;4.80;2.80;;;7.80;99.90;;;;;;25342939;23;20389;-58
2023/10/25 22:00:20;;;;;;;11.50;6.20;;;7.50;99.90;;;;;;25340315;23;20021;-58
2023/10/25 22:10:24;;;;;;;13.35;7.63;;;7.50;99.90;;;;;;25340226;23;20025;-55
2023/10/25 22:20:26;;;;;;;6.28;2.38;;;7.50;99.90;;;;;;25340566;23;20303;-52
2023/10/25 22:30:27;;;;;;;8.82;4.78;;;7.90;99.90;;;;;;25339900;23;20034;-59
2023/10/25 22:40:29;;;;;;;9.98;4.38;;;8.00;99.90;;;;;;25340131;23;20107;-54
2023/10/25 22:50:31;;;;;;;5.53;1.90;;;7.70;99.90;;;;;;25339825;23;20002;-52
2023/10/25 23:00:33;;;;;;;2.83;1.20;;;7.90;99.90;;;;;;25339362;23;20037;-59
2023/10/25 23:10:36;;;;;;;4.68;1.20;;;8.20;99.90;;;;;;25340870;23;20006;-55
2023/10/25 23:20:37;;;;;;;2.55;0.73;;;8.40;99.90;;;;;;25346848;23;20013;-57
2023/10/25 23:30:39;;;;;;;1.90;0.73;;;8.60;99.90;;;;;;25346279;23;20039;-59
2023/10/25 23:40:41;;;;;;;4.53;0.90;;;8.90;99.90;;;;;;25346093;23;20006;-59
2023/10/25 23:50:44;;;;;;;5.43;1.20;;;9.30;99.90;;;;;;25345763;23;20057;-57
